Time;durP1;ratioP1;P1;durP2;ratioP2;P2;SDS_P1;SDS_P2;PMS_P1;PMS_P2;Temp;Humidity;BMP_temperature;BMP_pressure;BME280_temperature;BME280_humidity;BME280_pressure;Samples;Min_cycle;Max_cycle;Signal;HPM_P1;HPM_P2
2022/05/13 00:00:48;;;;;;;6.70;3.80;;;;;;;15.16;73.61;100187.16;1722545;82;21010;-70
2022/05/13 00:03:14;;;;;;;13.60;4.30;;;;;;;15.08;73.03;100198.20;1702865;82;21125;-71
2022/05/13 00:05:41;;;;;;;5.80;4.22;;;;;;;15.02;73.13;100195.06;1713073;82;21044;-71
2022/05/13 00:08:07;;;;;;;;;;;;;;;14.94;73.94;100190.28;1724914;82;20983;-71
2022/05/13 00:10:34;;;;;;;6.97;3.83;;;;;;;14.91;73.95;100196.08;1729871;82;20167;-72
2022/05/13 00:13:00;;;;;;;;;;;;;;;14.85;74.35;100201.52;1723603;82;21009;-69
2022/05/13 00:15:29;;;;;;;2.85;2.65;;;;;;;14.82;73.43;100210.80;1721564;82;20185;-71
2022/05/13 00:17:56;;;;;;;6.62;2.60;;;;;;;14.71;72.93;100208.33;1724530;82;21616;-70
2022/05/13 00:20:25;;;;;;;7.65;3.10;;;;;;;14.69;72.68;100214.44;1708017;82;22200;-70
2022/05/13 00:22:56;;;;;;;1.45;1.35;;;;;;;14.67;72.27;100211.13;1718609;82;20986;-71
2022/05/13 00:25:27;;;;;;;4.65;1.35;;;;;;;14.62;71.62;100228.42;1722512;82;22231;-70
2022/05/13 00:27:56;;;;;;;7.55;2.00;;;;;;;14.58;69.97;100222.66;1722005;82;21021;-71
2022/05/13 00:30:23;;;;;;;1.98;1.02;;;;;;;14.54;70.46;100217.41;1724570;82;21292;-68
2022/05/13 00:32:49;;;;;;;1.80;1.27;;;;;;;14.49;70.22;100224.46;1720932;82;21073;-69
2022/05/13 00:35:17;;;;;;;4.62;1.10;;;;;;;14.44;69.78;100227.77;1689630;83;21050;-71
2022/05/13 00:37:44;;;;;;;2.67;1.22;;;;;;;14.40;70.31;100226.04;1661830;85;21077;-70
2022/05/13 00:40:12;;;;;;;2.02;1.00;;;;;;;14.36;68.95;100225.36;1654686;85;21500;-72
2022/05/13 00:42:39;;;;;;;5.90;1.05;;;;;;;14.34;68.44;100228.78;1672736;84;21075;-72
2022/05/13 00:45:08;;;;;;;1.75;0.88;;;;;;;14.30;68.69;100227.05;1676961;84;21041;-71
2022/05/13 00:47:35;;;;;;;1.45;0.80;;;;;;;14.26;67.91;100223.66;1650123;85;21023;-71
2022/05/13 00:50:04;;;;;;;1.60;0.50;;;;;;;14.24;68.67;100223.89;1689301;84;21124;-71
2022/05/13 00:52:33;;;;;;;2.05;0.68;;;;;;;14.24;68.53;100233.77;1661749;86;21003;-72
2022/05/13 00:55:04;;;;;;;2.27;0.30;;;;;;;14.21;68.47;100231.83;1657225;84;21026;-72
2022/05/13 00:57:32;;;;;;;2.02;0.40;;;;;;;14.17;67.07;100233.30;1668657;84;21503;-72
2022/05/13 01:00:03;;;;;;;1.45;0.50;;;;;;;14.14;67.55;100232.91;1671390;84;21094;-71
2022/05/13 01:02:30;;;;;;;3.05;0.50;;;;;;;14.12;67.30;100237.13;1658733;84;21082;-69
2022/05/13 01:04:56;;;;;;;0.88;0.60;;;;;;;14.12;67.60;100236.31;1661308;84;21060;-69
2022/05/13 01:07:23;;;;;;;0.60;0.20;;;;;;;14.12;67.41;100239.81;1656146;85;22227;-71
2022/05/13 01:09:55;;;;;;;5.55;0.30;;;;;;;14.14;66.72;100234.24;1655591;86;21047;-70
2022/05/13 01:12:29;;;;;;;0.50;0.30;;;;;;;14.12;66.70;100238.47;1665118;85;21138;-70
2022/05/13 01:15:04;;;;;;;1.12;0.50;;;;;;;14.11;66.97;100241.36;1665568;85;21068;-73
2022/05/13 01:20:26;;;;;;;2.50;0.30;;;;;;;14.09;66.42;100236.73;1664849;85;21479;-72
2022/05/13 01:23:00;;;;;;;1.50;0.33;;;;;;;14.06;66.50;100242.55;1654050;85;21089;-72
2022/05/13 01:25:30;;;;;;;1.57;0.20;;;;;;;14.06;66.65;100243.36;1660554;85;21040;-71
2022/05/13 01:28:05;;;;;;;1.70;0.20;;;;;;;14.07;66.49;100240.99;1675547;85;21034;-71
2022/05/13 01:30:31;;;;;;;2.33;0.20;;;;;;;14.02;66.16;100253.67;1676474;84;21150;-71
2022/05/13 01:32:58;;;;;;;;;;;;;;;13.96;66.55;100250.52;1680188;84;22230;-71
2022/05/13 01:35:25;;;;;;;0.33;0.25;;;;;;;13.93;66.59;100252.27;1653613;84;20142;-70
2022/05/13 01:37:52;;;;;;;1.75;0.20;;;;;;;13.87;66.27;100256.33;1651697;85;21098;-71
2022/05/13 01:40:18;;;;;;;0.75;0.40;;;;;;;13.82;66.28;100246.23;1670398;84;21386;-70
2022/05/13 01:42:45;;;;;;;1.45;0.33;;;;;;;13.82;66.41;100254.27;1667642;84;21096;-71
2022/05/13 01:45:12;;;;;;;4.85;0.33;;;;;;;13.80;66.04;100254.47;1673269;84;21555;-73
2022/05/13 01:47:38;;;;;;;6.47;0.85;;;;;;;13.79;66.19;100255.53;1665613;84;21066;-71
2022/05/13 01:50:06;;;;;;;;;;;;;;;13.79;66.41;100255.53;1675569;84;21112;-71
2022/05/13 01:52:34;;;;;;;2.85;0.28;;;;;;;13.80;66.60;100262.52;1670804;84;20126;-71
2022/05/13 01:55:00;;;;;;;0.70;0.42;;;;;;;13.76;66.95;100266.66;1670206;84;21476;-71
2022/05/13 01:57:27;;;;;;;1.00;0.23;;;;;;;13.76;66.60;100273.88;1641797;86;21074;-71
2022/05/13 01:59:55;;;;;;;0.62;0.10;;;;;;;13.74;66.54;100271.40;1643692;86;21566;-71
2022/05/13 02:02:21;;;;;;;4.53;0.20;;;;;;;13.72;66.32;100273.47;1643757;86;21070;-71
2022/05/13 02:04:48;;;;;;;0.53;0.20;;;;;;;13.72;66.49;100272.66;1642447;86;21478;-71
2022/05/13 02:07:14;;;;;;;;;;;;;;;13.70;66.75;100274.73;1641441;86;21125;-72
2022/05/13 02:09:40;;;;;;;2.58;0.23;;;;;;;13.66;66.84;100274.84;1644128;85;20155;-70
2022/05/13 02:12:08;;;;;;;0.25;0.25;;;;;;;13.58;67.06;100274.52;1679319;83;21624;-70
2022/05/13 02:14:35;;;;;;;2.60;0.10;;;;;;;13.57;67.24;100284.42;1656292;85;21075;-71
2022/05/13 02:17:01;;;;;;;0.25;0.10;;;;;;;13.55;67.17;100289.16;1648481;85;21610;-71
2022/05/13 02:19:27;;;;;;;1.32;0.10;;;;;;;13.51;67.42;100287.13;1665824;84;21041;-71
2022/05/13 02:21:54;;;;;;;0.57;0.28;;;;;;;13.47;67.38;100287.22;1662759;84;21132;-71
2022/05/13 02:24:20;;;;;;;10.08;0.20;;;;;;;13.44;67.09;100283.92;1685744;84;21077;-71
2022/05/13 02:26:46;;;;;;;;;;;;;;;13.44;67.18;100290.62;1688943;84;21050;-71
2022/05/13 02:29:12;;;;;;;5.90;0.55;;;;;;;13.42;67.41;100287.85;1683984;83;20108;-71
2022/05/13 02:31:38;;;;;;;1.20;0.13;;;;;;;13.35;67.65;100295.88;1682478;85;21034;-71
2022/05/13 02:34:04;;;;;;;0.68;0.40;;;;;;;13.36;67.96;100302.08;1695687;83;21052;-71
2022/05/13 02:36:30;;;;;;;1.22;0.10;;;;;;;13.36;67.78;100302.08;1686415;83;21057;-72
2022/05/13 02:38:57;;;;;;;0.50;0.23;;;;;;;13.37;67.75;100304.55;1702515;83;21041;-71
2022/05/13 02:41:23;;;;;;;3.98;0.57;;;;;;;13.37;67.71;100295.19;1684931;83;21146;-71
2022/05/13 02:43:53;;;;;;;4.72;0.35;;;;;;;13.44;67.10;100298.66;1687298;83;21552;-72
2022/05/13 02:46:24;;;;;;;1.37;0.30;;;;;;;13.44;66.98;100296.50;1703281;83;21005;-72
2022/05/13 02:48:51;;;;;;;6.35;0.60;;;;;;;13.43;67.05;100293.00;1699429;83;20969;-71
2022/05/13 02:51:19;;;;;;;2.05;0.90;;;;;;;13.48;67.14;100292.89;1688722;83;21045;-72
2022/05/13 02:53:46;;;;;;;3.85;1.17;;;;;;;13.60;67.09;100297.93;1688346;83;21057;-70
2022/05/13 02:56:12;;;;;;;3.15;1.00;;;;;;;13.35;66.73;100239.66;1692648;83;20968;-71
2022/05/13 02:58:40;;;;;;;1.85;0.85;;;;;;;14.01;65.68;100301.63;1690639;83;21021;-68
2022/05/13 03:01:10;;;;;;;6.50;1.98;;;;;;;14.53;64.34;100296.21;1686377;82;20969;-71
2022/05/13 03:03:43;;;;;;;4.00;1.55;;;;;;;15.10;62.45;100296.78;1689285;83;21009;-70
2022/05/13 03:06:10;;;;;;;3.00;1.70;;;;;;;15.72;60.71;100297.63;1685741;83;21421;-71
2022/05/13 03:08:37;;;;;;;3.12;1.72;;;;;;;16.27;59.00;100295.46;1685767;83;21087;-71
2022/05/13 03:11:07;;;;;;;6.17;1.95;;;;;;;16.84;56.50;100305.89;1690054;83;22124;-71
2022/05/13 03:13:34;;;;;;;2.75;1.27;;;;;;;17.41;55.34;100307.25;1684533;84;21112;-73
2022/05/13 03:16:07;;;;;;;5.83;1.20;;;;;;;17.79;53.38;100301.35;1677483;84;21074;-72
2022/05/13 03:18:33;;;;;;;5.15;1.62;;;;;;;17.80;51.98;100306.20;1673120;83;20969;-72
2022/05/13 03:21:01;;;;;;;4.65;0.93;;;;;;;17.89;52.12;100306.17;1684425;83;21266;-72
2022/05/13 03:23:28;;;;;;;6.12;1.37;;;;;;;18.22;51.53;100309.55;1676228;84;21018;-72
2022/05/13 03:25:54;;;;;;;2.25;0.88;;;;;;;18.61;49.48;100308.41;1688533;84;21023;-73
2022/05/13 03:28:20;;;;;;;2.02;0.82;;;;;;;18.90;48.70;100308.39;1683922;84;21138;-73
2022/05/13 03:30:47;;;;;;;4.78;0.60;;;;;;;19.22;47.25;100313.23;1677933;84;21093;-71
2022/05/13 03:33:13;;;;;;;2.00;0.40;;;;;;;19.59;46.43;100308.63;1689446;84;21023;-72
2022/05/13 03:35:39;;;;;;;2.90;0.28;;;;;;;19.87;45.75;100314.45;1696520;84;21099;-72
2022/05/13 03:38:05;;;;;;;;;;;;;;;20.08;44.43;100312.01;1700636;83;21071;-71
2022/05/13 03:40:31;;;;;;;4.37;0.60;;;;;;;20.30;44.32;100310.65;1679178;84;20441;-72
2022/05/13 03:42:57;;;;;;;;;;;;;;;20.58;44.03;100308.24;1697919;83;21106;-71
2022/05/13 03:45:24;;;;;;;4.87;0.50;;;;;;;20.88;42.59;100308.29;1701862;83;20111;-72
2022/05/13 03:47:50;;;;;;;2.52;0.33;;;;;;;21.13;42.49;100315.26;1689761;83;21127;-73
2022/05/13 03:50:16;;;;;;;2.08;0.40;;;;;;;21.54;41.15;100317.48;1696024;83;21130;-74
2022/05/13 03:52:43;;;;;;;1.45;1.00;;;;;;;21.87;40.49;100327.17;1695405;83;21020;-73
2022/05/13 03:55:10;;;;;;;5.78;2.15;;;;;;;22.24;39.76;100319.44;1695747;84;21567;-73
2022/05/13 03:57:36;;;;;;;3.92;0.93;;;;;;;22.54;39.29;100320.64;1690438;84;21102;-73
2022/05/13 04:00:06;;;;;;;4.55;0.98;;;;;;;22.78;38.80;100311.45;1694755;84;21538;-73
2022/05/13 04:02:32;;;;;;;0.88;0.50;;;;;;;22.93;38.31;100316.09;1695557;83;21811;-72
2022/05/13 04:10:28;;;;;;;6.67;1.27;;;;;;;23.07;37.90;100325.34;1690283;84;21138;-71
2022/05/13 04:18:24;;;;;;;4.20;1.85;;;;;;;23.17;37.84;100324.55;1720503;82;21015;-73
2022/05/13 04:20:50;;;;;;;2.90;1.62;;;;;;;23.13;37.40;100330.23;1724089;83;21573;-69
2022/05/13 04:23:21;;;;;;;7.25;2.35;;;;;;;23.10;37.62;100326.17;1712618;82;21030;-72
2022/05/13 04:25:47;;;;;;;4.65;2.15;;;;;;;23.05;37.39;100330.79;1711949;83;21097;-72
2022/05/13 04:28:14;;;;;;;4.45;1.55;;;;;;;23.01;38.28;100341.91;1721569;82;21097;-72
2022/05/13 04:30:41;;;;;;;9.25;1.70;;;;;;;23.20;37.59;100338.13;1721618;82;21053;-74
2022/05/13 04:33:12;;;;;;;3.83;1.82;;;;;;;23.21;37.69;100343.86;1718366;83;21112;-74
2022/05/13 04:35:41;;;;;;;4.05;3.02;;;;;;;23.30;37.21;100336.75;1683602;84;21310;-72
2022/05/13 04:38:08;;;;;;;7.92;2.02;;;;;;;23.40;37.35;100342.20;1682798;84;21062;-72
2022/05/13 04:40:34;;;;;;;10.20;2.52;;;;;;;23.43;36.94;100348.46;1686745;84;21109;-70
2022/05/13 04:43:01;;;;;;;10.82;3.52;;;;;;;23.28;36.95;100349.28;1684001;83;21058;-74
2022/05/13 04:45:30;;;;;;;7.97;3.45;;;;;;;23.12;37.30;100346.29;1648990;84;21477;-72
2022/05/13 04:48:21;;;;;;;6.10;3.27;;;;;;;22.98;37.33;100356.86;1634820;86;21347;-71
2022/05/13 04:50:53;;;;;;;7.58;4.53;;;;;;;23.00;37.33;100349.25;1649902;86;21057;-73
2022/05/13 04:53:26;;;;;;;8.23;3.90;;;;;;;23.25;36.95;100347.09;1637688;86;21005;-74
2022/05/13 04:55:54;;;;;;;10.35;5.62;;;;;;;23.19;36.86;100337.84;1655664;83;21031;-70
2022/05/13 04:58:22;;;;;;;9.38;5.50;;;;;;;23.12;37.23;100332.70;1706165;83;21423;-72
2022/05/13 05:00:51;;;;;;;16.40;8.20;;;;;;;23.36;36.81;100337.56;1686338;84;21053;-71
2022/05/13 05:03:23;;;;;;;16.52;8.40;;;;;;;23.37;36.61;100340.02;1694526;83;21588;-74
2022/05/13 05:05:50;;;;;;;16.42;8.78;;;;;;;23.21;37.40;100349.30;1705085;82;21173;-71
2022/05/13 05:08:17;;;;;;;14.78;8.43;;;;;;;23.17;37.13;100345.46;1695037;84;21097;-73
2022/05/13 05:10:46;;;;;;;13.13;6.42;;;;;;;22.98;37.85;100332.92;1662605;85;21032;-75
2022/05/13 05:13:23;;;;;;;9.93;6.55;;;;;;;23.01;37.94;100340.00;1599678;85;21046;-73
2022/05/13 05:15:57;;;;;;;10.30;5.10;;;;;;;22.99;39.30;100336.73;1708649;83;21584;-74
2022/05/13 05:18:24;;;;;;;11.28;5.83;;;;;;;22.96;37.58;100337.27;1653250;85;21053;-74
2022/05/13 05:20:53;;;;;;;9.48;4.45;;;;;;;22.92;37.86;100349.77;1690958;83;21027;-72
2022/05/13 05:23:25;;;;;;;7.95;4.37;;;;;;;22.78;37.00;100354.92;1696146;83;20989;-74
2022/05/13 05:25:51;;;;;;;5.85;3.47;;;;;;;22.54;39.05;100351.88;1700270;82;21065;-73
2022/05/13 05:28:20;;;;;;;7.87;2.98;;;;;;;22.56;36.78;100372.80;1697571;83;21028;-73
2022/05/13 05:30:47;;;;;;;6.08;1.90;;;;;;;22.52;36.70;100368.98;1700816;83;20999;-74
2022/05/13 05:33:15;;;;;;;1.77;1.20;;;;;;;22.40;36.68;100358.91;1688936;83;21101;-73
2022/05/13 05:35:42;;;;;;;2.35;1.42;;;;;;;22.31;36.25;100359.96;1700952;82;22238;-71
2022/05/13 05:38:08;;;;;;;5.67;0.90;;;;;;;22.25;36.26;100348.27;1692786;83;22138;-74
2022/05/13 05:40:37;;;;;;;6.00;1.10;;;;;;;22.39;35.53;100353.20;1700368;83;21149;-73
2022/05/13 05:43:08;;;;;;;4.53;0.80;;;;;;;22.33;35.03;100353.17;1701203;83;21069;-73
2022/05/13 05:45:37;;;;;;;2.50;0.68;;;;;;;22.20;37.01;100349.56;1672791;83;21785;-73
2022/05/13 05:48:05;;;;;;;8.30;0.70;;;;;;;22.14;34.59;100349.28;1694801;83;21132;-73
2022/05/13 05:50:31;;;;;;;4.08;1.00;;;;;;;22.10;34.63;100354.41;1671246;84;21089;-72
2022/05/13 05:52:58;;;;;;;1.90;0.60;;;;;;;22.00;35.19;100346.76;1669064;84;21090;-73
2022/05/13 05:58:13;;;;;;;4.22;1.87;;;;;;;21.63;35.70;100341.69;1699662;83;21569;-74
2022/05/13 06:00:47;;;;;;;1.50;0.60;;;;;;;21.52;35.88;100343.50;1670445;83;21168;-73
2022/05/13 06:03:14;;;;;;;1.72;1.05;;;;;;;21.34;36.31;100339.81;1661589;85;21442;-74
2022/05/13 06:05:45;;;;;;;3.00;1.10;;;;;;;20.80;37.20;100307.67;1677770;83;21065;-72
2022/05/13 06:08:12;;;;;;;2.87;1.10;;;;;;;20.91;37.48;100360.61;1681895;83;21029;-74
2022/05/13 06:10:39;;;;;;;3.27;0.80;;;;;;;20.86;37.70;100368.14;1685376;83;21030;-71
2022/05/13 06:13:07;;;;;;;8.13;1.50;;;;;;;20.84;37.71;100370.83;1677692;83;21553;-70
2022/05/13 06:15:34;;;;;;;3.42;1.52;;;;;;;20.77;37.26;100371.83;1661503;85;21026;-73
2022/05/13 06:18:00;;;;;;;3.52;1.57;;;;;;;20.89;38.16;100383.05;1675736;83;21371;-72
2022/05/13 06:20:30;;;;;;;8.70;2.85;;;;;;;21.28;38.50;100382.33;1671799;83;21120;-70
2022/05/13 06:22:58;;;;;;;4.97;2.33;;;;;;;21.65;36.34;100390.25;1666061;83;21080;-72
2022/05/13 06:25:25;;;;;;;5.00;3.15;;;;;;;21.77;35.75;100378.65;1687118;83;21078;-73
2022/05/13 06:27:54;;;;;;;3.47;1.47;;;;;;;21.84;36.08;100386.57;1660168;85;21183;-71
2022/05/13 06:30:28;;;;;;;6.87;3.00;;;;;;;21.83;36.09;100388.48;1712721;82;21099;-71
2022/05/13 06:32:56;;;;;;;6.45;3.30;;;;;;;21.87;35.28;100386.87;1716646;82;21014;-71
2022/05/13 06:35:25;;;;;;;4.55;2.30;;;;;;;21.81;35.06;100387.09;1716860;82;21041;-71
2022/05/13 06:37:51;;;;;;;6.12;3.05;;;;;;;21.74;35.27;100385.42;1718878;82;21029;-71
2022/05/13 06:40:18;;;;;;;7.00;2.83;;;;;;;21.62;35.57;100387.50;1672590;83;21088;-72
2022/05/13 06:42:45;;;;;;;7.30;2.37;;;;;;;21.76;34.56;100379.75;1658696;83;21037;-71
2022/05/13 06:45:12;;;;;;;5.25;3.08;;;;;;;21.90;34.06;100389.03;1662404;85;21053;-71
2022/05/13 06:47:39;;;;;;;5.47;3.70;;;;;;;22.06;34.04;100389.15;1625198;86;21116;-72
2022/05/13 06:50:09;;;;;;;4.37;2.85;;;;;;;22.15;33.71;100386.18;1669622;84;22103;-71
2022/05/13 06:52:38;;;;;;;6.47;2.15;;;;;;;22.09;33.70;100383.98;1656941;83;21520;-71
2022/05/13 06:55:06;;;;;;;4.37;2.67;;;;;;;21.94;32.86;100378.48;1670757;84;21054;-71
2022/05/13 06:57:33;;;;;;;4.95;1.70;;;;;;;21.64;33.62;100379.11;1663037;84;20979;-72
2022/05/13 06:59:59;;;;;;;4.50;2.35;;;;;;;21.41;33.42;100376.20;1662641;84;21049;-72
2022/05/13 07:02:27;;;;;;;4.22;2.08;;;;;;;21.29;33.96;100376.39;1702334;82;21054;-71
2022/05/13 07:04:53;;;;;;;6.42;2.42;;;;;;;21.21;34.30;100380.39;1720282;82;21102;-71
2022/05/13 07:07:19;;;;;;;4.15;2.77;;;;;;;21.18;34.69;100383.06;1716977;82;21703;-71
2022/05/13 07:09:45;;;;;;;7.53;3.17;;;;;;;21.18;35.08;100383.06;1716592;82;21014;-72
2022/05/13 07:12:11;;;;;;;6.53;3.15;;;;;;;21.24;35.15;100379.86;1682869;83;21290;-71
2022/05/13 07:15:46;;;;;;;8.18;3.75;;;;;;;21.25;35.22;100372.02;1795817;78;22868;-72
2022/05/13 07:18:13;;;;;;;7.47;3.92;;;;;;;21.14;35.01;100371.11;1745742;80;21051;-72
2022/05/13 07:20:40;;;;;;;8.08;2.85;;;;;;;21.09;34.65;100377.02;1753525;80;20991;-71
2022/05/13 07:23:06;;;;;;;5.75;3.17;;;;;;;20.96;34.69;100382.31;1733616;80;21218;-70
2022/05/13 07:25:33;;;;;;;6.70;3.25;;;;;;;20.92;35.73;100382.01;1707580;83;21048;-70
2022/05/13 07:28:00;;;;;;;6.75;3.55;;;;;;;20.93;34.91;100382.30;1703528;83;21426;-72
2022/05/13 07:30:26;;;;;;;7.03;2.45;;;;;;;20.83;35.29;100375.41;1703719;83;21614;-71
2022/05/13 07:32:53;;;;;;;7.45;1.80;;;;;;;20.71;34.07;100375.57;1702400;83;21532;-73
2022/05/13 07:35:19;;;;;;;3.27;1.95;;;;;;;20.61;33.80;100393.08;1703972;82;21430;-70
2022/05/13 07:37:45;;;;;;;4.75;2.55;;;;;;;20.57;33.64;100389.21;1703639;83;21036;-71
2022/05/13 07:42:57;;;;;;;5.05;2.92;;;;;;;20.39;33.89;100386.28;1700158;83;21691;-71
2022/05/13 07:45:24;;;;;;;5.95;2.87;;;;;;;20.30;34.50;100390.50;1702360;83;20980;-71
2022/05/13 07:47:50;;;;;;;4.95;2.30;;;;;;;20.21;34.60;100390.95;1701932;83;20969;-71
2022/05/13 07:50:18;;;;;;;5.58;2.45;;;;;;;20.15;34.86;100392.47;1703896;83;21111;-71
2022/05/13 07:52:45;;;;;;;5.83;1.57;;;;;;;20.09;35.47;100390.77;1704789;83;21021;-71
2022/05/13 07:55:15;;;;;;;6.05;1.50;;;;;;;20.03;34.85;100395.30;1698098;82;21164;-70
2022/05/13 07:57:43;;;;;;;3.72;1.90;;;;;;;19.95;34.83;100384.38;1703735;83;21032;-71
2022/05/13 08:00:25;;;;;;;7.80;2.55;;;;;;;19.92;35.41;100386.75;1691643;83;21117;-70
2022/05/13 08:03:01;;;;;;;4.08;2.22;;;;;;;19.86;35.18;100395.87;1704499;83;21005;-72
2022/05/13 08:05:32;;;;;;;7.63;2.30;;;;;;;19.67;35.40;100387.18;1704454;83;21050;-71
2022/05/13 08:08:04;;;;;;;5.95;1.95;;;;;;;19.59;35.60;100401.39;1704053;83;21056;-71
2022/05/13 08:10:31;;;;;;;4.20;1.45;;;;;;;19.51;36.20;100405.03;1705076;83;21033;-72
2022/05/13 08:12:57;;;;;;;3.75;1.12;;;;;;;19.51;36.26;100397.73;1702837;83;21548;-72
2022/05/13 08:15:23;;;;;;;;;;;;;;;19.57;35.48;100396.77;1706332;83;21547;-71
2022/05/13 08:17:50;;;;;;;3.10;1.57;;;;;;;19.67;35.58;100397.99;1702255;83;20163;-71
2022/05/13 08:20:16;;;;;;;5.75;1.85;;;;;;;19.65;35.81;100388.23;1703562;83;21353;-71
2022/05/13 08:22:45;;;;;;;4.15;1.10;;;;;;;19.70;35.88;100393.42;1709190;82;20977;-72
2022/05/13 08:25:12;;;;;;;2.22;1.25;;;;;;;19.73;35.37;100387.56;1715724;83;21485;-71
2022/05/13 08:27:39;;;;;;;7.80;1.57;;;;;;;19.67;35.14;100380.42;1703545;83;21052;-72
2022/05/13 08:30:09;;;;;;;2.35;0.93;;;;;;;19.60;35.02;100378.69;1718760;83;21040;-72
2022/05/13 08:32:35;;;;;;;4.90;1.17;;;;;;;19.58;35.71;100382.17;1705370;83;21010;-71
2022/05/13 08:35:03;;;;;;;1.60;0.75;;;;;;;19.60;35.54;100374.62;1704047;82;21004;-71
2022/05/13 08:37:30;;;;;;;2.92;1.00;;;;;;;19.60;35.15;100377.33;1703154;83;21032;-72
2022/05/13 08:40:03;;;;;;;4.50;1.27;;;;;;;19.63;35.88;100378.73;1702892;83;21024;-71
2022/05/13 08:42:38;;;;;;;2.92;1.72;;;;;;;19.71;35.47;100380.20;1703592;83;21679;-72
2022/05/13 08:45:09;;;;;;;4.53;1.75;;;;;;;19.81;36.07;100373.61;1703619;82;21119;-72
2022/05/13 08:47:53;;;;;;;1.00;0.75;;;;;;;19.83;35.52;100370.96;1699408;83;20973;-71
2022/05/13 08:50:30;;;;;;;3.02;0.65;;;;;;;19.93;35.85;100378.39;1703698;83;21004;-71
2022/05/13 08:53:34;;;;;;;5.72;0.93;;;;;;;20.05;35.13;100368.00;1675457;83;21045;-72
2022/05/13 08:56:08;;;;;;;2.00;0.55;;;;;;;20.06;35.02;100365.05;1703008;82;21015;-70
2022/05/13 08:58:54;;;;;;;1.35;0.42;;;;;;;20.13;34.70;100369.71;1717640;83;21013;-72
2022/05/13 09:01:26;;;;;;;2.65;0.65;;;;;;;20.18;34.22;100377.09;1717083;82;21057;-71
2022/05/13 09:04:03;;;;;;;3.33;0.57;;;;;;;20.19;34.00;100363.31;1705541;83;21048;-70
2022/05/13 09:06:49;;;;;;;2.05;0.40;;;;;;;19.97;33.84;100368.70;1709189;83;21075;-70
2022/05/13 09:09:15;;;;;;;1.90;0.47;;;;;;;19.73;34.99;100372.69;1705069;83;21053;-72
2022/05/13 09:12:31;;;;;;;0.98;0.20;;;;;;;19.54;34.85;100370.76;1716633;83;21049;-70
2022/05/13 09:15:15;;;;;;;1.55;0.30;;;;;;;19.39;35.49;100356.47;1694407;83;21091;-71
2022/05/13 09:18:19;;;;;;;2.50;0.30;;;;;;;19.39;35.61;100367.28;1707218;83;21474;-71
2022/05/13 09:20:54;;;;;;;1.00;0.28;;;;;;;19.45;35.77;100356.83;1699280;83;21044;-71
2022/05/13 09:23:21;;;;;;;1.70;0.50;;;;;;;19.57;35.98;100356.73;1702686;81;21000;-72
2022/05/13 09:26:13;;;;;;;2.55;0.20;;;;;;;19.65;36.01;100347.67;1670396;84;21034;-71
2022/05/13 09:29:04;;;;;;;2.65;0.20;;;;;;;19.74;35.20;100354.03;1684547;84;21068;-70
2022/05/13 09:31:35;;;;;;;1.17;0.10;;;;;;;19.73;34.79;100353.76;1677824;84;21077;-70
2022/05/13 09:34:01;;;;;;;0.65;0.10;;;;;;;19.58;35.06;100349.72;1679916;83;21511;-72
2022/05/13 09:36:32;;;;;;;0.25;0.15;;;;;;;19.52;35.15;100350.72;1700355;83;21582;-71
2022/05/13 09:39:17;;;;;;;1.30;0.10;;;;;;;19.49;35.36;100339.58;1698826;83;21657;-72
2022/05/13 09:41:44;;;;;;;4.50;0.30;;;;;;;19.55;35.56;100344.83;1673771;84;21041;-70
2022/05/13 09:44:22;;;;;;;0.60;0.10;;;;;;;19.63;35.16;100336.29;1704947;82;21055;-71
2022/05/13 09:47:10;;;;;;;1.85;0.20;;;;;;;19.64;34.60;100335.20;1692472;83;21155;-70
2022/05/13 09:49:42;;;;;;;;;;;;;;;19.56;34.38;100327.53;1667189;84;21100;-71
2022/05/13 09:52:13;;;;;;;1.27;0.30;;;;;;;19.51;34.76;100335.55;1694309;84;20200;-71
2022/05/13 09:54:46;;;;;;;1.22;0.10;;;;;;;19.53;34.80;100337.48;1698451;84;21088;-70
2022/05/13 09:57:24;;;;;;;0.10;0.10;;;;;;;19.56;34.88;100332.13;1673951;83;21045;-71
2022/05/13 10:00:02;;;;;;;3.60;0.10;;;;;;;19.52;35.62;100323.69;1720092;83;21440;-71
2022/05/13 10:02:44;;;;;;;4.58;0.10;;;;;;;19.57;35.83;100329.18;1700839;84;21001;-71
2022/05/13 10:05:26;;;;;;;4.60;0.10;;;;;;;19.71;35.94;100329.63;1707713;83;21000;-70
2022/05/13 10:07:58;;;;;;;3.08;0.10;;;;;;;19.95;35.87;100329.45;1724640;83;21004;-71
2022/05/13 10:16:19;;;;;;;2.85;0.20;;;;;;;20.47;33.91;100320.85;1665888;84;21111;-73
2022/05/13 10:19:11;;;;;;;0.50;0.23;;;;;;;20.51;33.70;100323.87;1663131;85;21171;-72
2022/05/13 10:21:58;;;;;;;1.72;0.10;;;;;;;20.50;33.23;100323.06;1661966;85;21373;-73
2022/05/13 10:24:57;;;;;;;3.00;0.10;;;;;;;20.46;33.12;100295.41;1684966;82;21003;-71
2022/05/13 10:27:53;;;;;;;1.67;0.10;;;;;;;20.54;33.00;100299.81;1668268;84;21606;-71
2022/05/13 10:30:28;;;;;;;2.00;0.10;;;;;;;20.62;33.17;100305.33;1681845;84;21019;-71
2022/05/13 10:33:17;;;;;;;1.03;0.20;;;;;;;20.66;33.60;100305.64;1682632;84;21309;-71
2022/05/13 10:36:16;;;;;;;2.62;0.20;;;;;;;20.67;32.96;100304.58;1676424;84;21582;-71
2022/05/13 10:39:22;;;;;;;1.45;0.30;;;;;;;20.70;32.99;100310.30;1684817;84;21082;-72
2022/05/13 10:42:03;;;;;;;1.75;0.10;;;;;;;20.79;32.82;100301.16;1674796;84;21023;-70
2022/05/13 10:44:35;;;;;;;1.57;0.20;;;;;;;20.85;32.86;100311.50;1680022;84;21531;-71
2022/05/13 10:47:07;;;;;;;2.05;0.10;;;;;;;20.81;32.70;100308.48;1681397;84;21056;-69
2022/05/13 10:49:39;;;;;;;3.08;0.10;;;;;;;20.74;33.29;100301.94;1681187;84;21067;-71
2022/05/13 10:52:23;;;;;;;1.10;0.30;;;;;;;20.75;33.57;100293.27;1666234;84;21060;-71
2022/05/13 10:55:17;;;;;;;2.15;0.20;;;;;;;20.80;33.20;100302.27;1677249;84;21044;-71
2022/05/13 10:58:10;;;;;;;2.67;0.33;;;;;;;20.73;33.34;100292.16;1674205;84;21063;-71
2022/05/13 11:01:04;;;;;;;0.57;0.40;;;;;;;20.59;33.47;100291.75;1622344;86;21102;-72
2022/05/13 11:03:58;;;;;;;1.37;0.25;;;;;;;20.55;33.85;100283.86;1620647;87;21076;-72
2022/05/13 11:06:58;;;;;;;1.42;0.30;;;;;;;20.57;34.04;100276.30;1623268;87;21163;-71
2022/05/13 11:10:10;;;;;;;1.75;0.20;;;;;;;20.57;34.04;100286.31;1627147;87;21010;-70
2022/05/13 11:13:00;;;;;;;2.70;0.42;;;;;;;20.52;33.30;100271.37;1626622;87;21573;-72
2022/05/13 11:15:50;;;;;;;2.67;0.62;;;;;;;20.49;33.65;100271.87;1626641;87;21608;-72
2022/05/13 11:18:41;;;;;;;2.40;0.20;;;;;;;20.47;33.68;100273.47;1620720;87;21701;-71
2022/05/13 11:21:32;;;;;;;2.12;0.20;;;;;;;20.41;33.93;100274.50;1625584;87;21160;-71
2022/05/13 11:27:37;;;;;;;8.23;0.80;;;;;;;20.37;33.26;100258.49;1683786;84;21079;-71
2022/05/13 11:30:09;;;;;;;;;;;;;;;20.39;33.35;100259.86;1664658;85;21015;-71
2022/05/13 11:33:11;;;;;;;2.15;0.40;;;;;;;20.35;33.29;100263.34;1679417;84;20796;-70
2022/05/13 11:35:43;;;;;;;0.68;0.15;;;;;;;20.19;33.64;100269.11;1669803;85;21142;-71
2022/05/13 11:38:18;;;;;;;1.67;0.10;;;;;;;20.18;33.96;100258.03;1679770;84;21141;-71
2022/05/13 11:41:16;;;;;;;0.40;0.20;;;;;;;20.20;33.69;100255.88;1668306;84;21168;-69
2022/05/13 11:43:43;;;;;;;1.67;0.37;;;;;;;20.20;33.70;100253.17;1671840;84;21057;-71
2022/05/13 11:46:36;;;;;;;1.35;0.25;;;;;;;20.24;34.21;100248.88;1710395;83;21083;-73
2022/05/13 11:49:32;;;;;;;0.37;0.30;;;;;;;20.31;34.11;100244.09;1713381;82;21067;-71
2022/05/13 11:52:16;;;;;;;4.92;0.30;;;;;;;20.30;33.32;100239.73;1700281;83;21063;-71
2022/05/13 11:54:44;;;;;;;2.05;0.10;;;;;;;20.35;33.67;100243.05;1694533;83;21502;-71
2022/05/13 11:57:24;;;;;;;0.55;0.20;;;;;;;20.49;33.36;100236.67;1653804;85;21018;-71
2022/05/13 12:00:20;;;;;;;1.95;0.28;;;;;;;20.64;33.33;100244.95;1674426;84;21055;-72
2022/05/13 12:03:07;;;;;;;0.82;0.20;;;;;;;20.78;32.54;100236.70;1677996;85;21555;-71
2022/05/13 12:06:02;;;;;;;4.42;0.28;;;;;;;20.78;32.54;100236.70;1670392;84;21716;-72
2022/05/13 12:08:47;;;;;;;1.20;0.70;;;;;;;20.81;32.73;100232.64;1684483;84;21104;-71
2022/05/13 12:11:42;;;;;;;1.20;0.30;;;;;;;20.76;32.37;100230.72;1680492;84;21670;-72
2022/05/13 12:14:20;;;;;;;3.77;0.20;;;;;;;20.70;32.05;100229.57;1709307;82;21180;-71
2022/05/13 12:17:09;;;;;;;1.32;0.20;;;;;;;20.58;32.11;100228.36;1711526;82;21092;-73
2022/05/13 12:20:05;;;;;;;2.15;0.20;;;;;;;20.52;32.06;100230.20;1682988;82;21077;-72